sensor_id;sensor_type;location;lat;lon;timestamp;P1;durP1;ratioP1;P2;durP2;ratioP2
13002;SDS011;66869;57.706;11.922;2023-01-13T00:00:12;1.70;;;0.20;;
13002;SDS011;66869;57.706;11.922;2023-01-13T00:02:37;1.10;;;0.40;;
13002;SDS011;66869;57.706;11.922;2023-01-13T00:05:03;0.75;;;0.20;;
13002;SDS011;66869;57.706;11.922;2023-01-13T00:07:28;0.60;;;0.20;;
13002;SDS011;66869;57.706;11.922;2023-01-13T00:09:53;0.25;;;0.20;;
13002;SDS011;66869;57.706;11.922;2023-01-13T00:12:19;0.80;;;0.30;;
13002;SDS011;66869;57.706;11.922;2023-01-13T00:14:44;0.10;;;0.10;;
13002;SDS011;66869;57.706;11.922;2023-01-13T00:17:09;0.40;;;0.10;;
13002;SDS011;66869;57.706;11.922;2023-01-13T00:19:35;0.57;;;0.10;;
13002;SDS011;66869;57.706;11.922;2023-01-13T00:22:00;0.10;;;0.10;;
13002;SDS011;66869;57.706;11.922;2023-01-13T00:24:25;0.20;;;0.20;;
13002;SDS011;66869;57.706;11.922;2023-01-13T00:26:51;0.17;;;0.17;;
13002;SDS011;66869;57.706;11.922;2023-01-13T00:29:16;0.00;;;0.00;;
13002;SDS011;66869;57.706;11.922;2023-01-13T00:31:42;0.38;;;0.10;;
13002;SDS011;66869;57.706;11.922;2023-01-13T00:34:07;1.10;;;0.20;;
13002;SDS011;66869;57.706;11.922;2023-01-13T00:36:32;0.10;;;0.10;;
13002;SDS011;66869;57.706;11.922;2023-01-13T00:38:58;0.22;;;0.10;;
13002;SDS011;66869;57.706;11.922;2023-01-13T00:41:24;0.10;;;0.10;;
13002;SDS011;66869;57.706;11.922;2023-01-13T00:43:49;0.30;;;0.10;;
13002;SDS011;66869;57.706;11.922;2023-01-13T00:46:16;1.00;;;0.15;;
13002;SDS011;66869;57.706;11.922;2023-01-13T00:48:41;1.65;;;0.10;;
13002;SDS011;66869;57.706;11.922;2023-01-13T00:51:07;1.65;;;0.10;;
13002;SDS011;66869;57.706;11.922;2023-01-13T00:53:35;1.55;;;0.20;;
13002;SDS011;66869;57.706;11.922;2023-01-13T00:58:25;0.10;;;0.10;;
13002;SDS011;66869;57.706;11.922;2023-01-13T01:00:51;1.17;;;0.20;;
13002;SDS011;66869;57.706;11.922;2023-01-13T01:03:16;0.40;;;0.10;;
13002;SDS011;66869;57.706;11.922;2023-01-13T01:05:41;0.20;;;0.10;;
13002;SDS011;66869;57.706;11.922;2023-01-13T01:08:07;0.10;;;0.10;;
13002;SDS011;66869;57.706;11.922;2023-01-13T01:10:32;0.20;;;0.10;;
13002;SDS011;66869;57.706;11.922;2023-01-13T01:12:57;0.10;;;0.10;;
13002;SDS011;66869;57.706;11.922;2023-01-13T01:15:22;0.25;;;0.10;;
13002;SDS011;66869;57.706;11.922;2023-01-13T01:17:48;1.65;;;0.20;;
13002;SDS011;66869;57.706;11.922;2023-01-13T01:20:13;0.00;;;0.00;;
13002;SDS011;66869;57.706;11.922;2023-01-13T01:22:38;0.10;;;0.00;;
13002;SDS011;66869;57.706;11.922;2023-01-13T01:25:04;0.47;;;0.13;;
13002;SDS011;66869;57.706;11.922;2023-01-13T01:27:29;0.10;;;0.10;;
13002;SDS011;66869;57.706;11.922;2023-01-13T01:29:54;0.15;;;0.10;;
13002;SDS011;66869;57.706;11.922;2023-01-13T01:32:20;0.20;;;0.03;;
13002;SDS011;66869;57.706;11.922;2023-01-13T01:34:45;0.05;;;0.05;;
13002;SDS011;66869;57.706;11.922;2023-01-13T01:37:10;0.75;;;0.10;;
13002;SDS011;66869;57.706;11.922;2023-01-13T01:39:35;0.10;;;0.10;;
13002;SDS011;66869;57.706;11.922;2023-01-13T01:42:01;0.00;;;0.00;;
13002;SDS011;66869;57.706;11.922;2023-01-13T01:44:50;2.30;;;0.15;;
13002;SDS011;66869;57.706;11.922;2023-01-13T01:47:17;1.75;;;0.25;;
13002;SDS011;66869;57.706;11.922;2023-01-13T01:49:43;0.10;;;0.10;;
13002;SDS011;66869;57.706;11.922;2023-01-13T01:54:39;1.00;;;0.00;;
13002;SDS011;66869;57.706;11.922;2023-01-13T01:57:06;0.10;;;0.10;;
13002;SDS011;66869;57.706;11.922;2023-01-13T01:59:33;0.95;;;0.10;;
13002;SDS011;66869;57.706;11.922;2023-01-13T02:02:00;0.52;;;0.08;;
13002;SDS011;66869;57.706;11.922;2023-01-13T02:04:27;0.52;;;0.10;;
13002;SDS011;66869;57.706;11.922;2023-01-13T02:06:53;0.10;;;0.10;;
13002;SDS011;66869;57.706;11.922;2023-01-13T02:09:20;0.85;;;0.10;;
13002;SDS011;66869;57.706;11.922;2023-01-13T02:11:46;0.10;;;0.10;;
13002;SDS011;66869;57.706;11.922;2023-01-13T02:14:30;0.08;;;0.08;;
13002;SDS011;66869;57.706;11.922;2023-01-13T02:22:22;0.20;;;0.20;;
13002;SDS011;66869;57.706;11.922;2023-01-13T02:27:30;0.35;;;0.20;;
13002;SDS011;66869;57.706;11.922;2023-01-13T02:38:09;0.20;;;0.10;;
13002;SDS011;66869;57.706;11.922;2023-01-13T02:40:43;1.10;;;0.10;;
13002;SDS011;66869;57.706;11.922;2023-01-13T02:43:22;0.35;;;0.10;;
13002;SDS011;66869;57.706;11.922;2023-01-13T02:46:14;0.45;;;0.10;;
13002;SDS011;66869;57.706;11.922;2023-01-13T02:48:42;2.75;;;0.30;;
13002;SDS011;66869;57.706;11.922;2023-01-13T02:51:14;0.30;;;0.13;;
13002;SDS011;66869;57.706;11.922;2023-01-13T02:53:45;0.90;;;0.20;;
13002;SDS011;66869;57.706;11.922;2023-01-13T02:56:13;0.20;;;0.20;;
13002;SDS011;66869;57.706;11.922;2023-01-13T02:58:40;1.08;;;0.30;;
13002;SDS011;66869;57.706;11.922;2023-01-13T03:01:08;0.20;;;0.20;;
13002;SDS011;66869;57.706;11.922;2023-01-13T03:03:33;0.60;;;0.40;;
13002;SDS011;66869;57.706;11.922;2023-01-13T03:11:12;2.35;;;0.80;;
13002;SDS011;66869;57.706;11.922;2023-01-13T03:24:33;2.55;;;0.93;;
13002;SDS011;66869;57.706;11.922;2023-01-13T03:32:47;3.17;;;0.80;;
13002;SDS011;66869;57.706;11.922;2023-01-13T03:35:37;5.43;;;1.08;;
13002;SDS011;66869;57.706;11.922;2023-01-13T03:40:56;5.80;;;1.58;;
13002;SDS011;66869;57.706;11.922;2023-01-13T03:43:26;3.67;;;1.30;;
13002;SDS011;66869;57.706;11.922;2023-01-13T03:46:14;2.80;;;1.27;;
13002;SDS011;66869;57.706;11.922;2023-01-13T03:48:48;6.20;;;1.35;;
13002;SDS011;66869;57.706;11.922;2023-01-13T03:51:16;2.42;;;0.98;;
13002;SDS011;66869;57.706;11.922;2023-01-13T03:53:47;1.50;;;0.80;;
13002;SDS011;66869;57.706;11.922;2023-01-13T03:56:29;6.32;;;1.20;;
13002;SDS011;66869;57.706;11.922;2023-01-13T03:58:55;3.72;;;1.20;;
13002;SDS011;66869;57.706;11.922;2023-01-13T04:01:36;2.83;;;0.75;;
13002;SDS011;66869;57.706;11.922;2023-01-13T04:04:08;3.25;;;1.20;;
13002;SDS011;66869;57.706;11.922;2023-01-13T04:09:32;1.10;;;0.65;;
13002;SDS011;66869;57.706;11.922;2023-01-13T04:12:12;11.50;;;3.97;;
13002;SDS011;66869;57.706;11.922;2023-01-13T04:14:47;6.90;;;1.65;;
13002;SDS011;66869;57.706;11.922;2023-01-13T04:17:15;2.42;;;1.23;;
13002;SDS011;66869;57.706;11.922;2023-01-13T04:19:40;2.60;;;1.02;;
13002;SDS011;66869;57.706;11.922;2023-01-13T04:22:07;3.65;;;1.20;;
13002;SDS011;66869;57.706;11.922;2023-01-13T04:24:33;3.70;;;1.23;;
13002;SDS011;66869;57.706;11.922;2023-01-13T04:27:00;2.90;;;1.00;;
13002;SDS011;66869;57.706;11.922;2023-01-13T04:29:26;1.25;;;0.95;;
13002;SDS011;66869;57.706;11.922;2023-01-13T04:31:53;1.75;;;0.90;;
13002;SDS011;66869;57.706;11.922;2023-01-13T04:34:20;2.50;;;0.70;;
13002;SDS011;66869;57.706;11.922;2023-01-13T04:36:46;1.90;;;0.80;;
13002;SDS011;66869;57.706;11.922;2023-01-13T04:39:12;3.83;;;0.82;;
13002;SDS011;66869;57.706;11.922;2023-01-13T04:41:39;1.05;;;0.60;;
13002;SDS011;66869;57.706;11.922;2023-01-13T04:44:24;1.30;;;0.80;;
13002;SDS011;66869;57.706;11.922;2023-01-13T04:46:51;0.85;;;0.47;;
13002;SDS011;66869;57.706;11.922;2023-01-13T04:49:17;1.30;;;0.57;;
13002;SDS011;66869;57.706;11.922;2023-01-13T04:51:42;1.98;;;0.75;;
13002;SDS011;66869;57.706;11.922;2023-01-13T04:56:52;2.25;;;0.70;;
13002;SDS011;66869;57.706;11.922;2023-01-13T04:59:19;3.00;;;0.68;;
13002;SDS011;66869;57.706;11.922;2023-01-13T05:01:45;2.92;;;0.60;;
13002;SDS011;66869;57.706;11.922;2023-01-13T05:04:12;1.25;;;0.57;;
13002;SDS011;66869;57.706;11.922;2023-01-13T05:06:41;1.63;;;0.60;;
13002;SDS011;66869;57.706;11.922;2023-01-13T05:09:07;0.98;;;0.60;;
13002;SDS011;66869;57.706;11.922;2023-01-13T05:11:34;2.13;;;0.60;;
13002;SDS011;66869;57.706;11.922;2023-01-13T05:14:37;1.83;;;0.68;;
13002;SDS011;66869;57.706;11.922;2023-01-13T05:17:22;3.80;;;0.50;;
13002;SDS011;66869;57.706;11.922;2023-01-13T05:19:49;1.48;;;0.65;;
13002;SDS011;66869;57.706;11.922;2023-01-13T05:22:16;3.58;;;0.70;;
13002;SDS011;66869;57.706;11.922;2023-01-13T05:25:01;1.95;;;0.60;;
13002;SDS011;66869;57.706;11.922;2023-01-13T05:27:44;0.68;;;0.50;;
13002;SDS011;66869;57.706;11.922;2023-01-13T05:30:11;1.10;;;0.57;;
13002;SDS011;66869;57.706;11.922;2023-01-13T05:32:37;1.70;;;0.43;;
13002;SDS011;66869;57.706;11.922;2023-01-13T05:35:04;0.73;;;0.47;;
13002;SDS011;66869;57.706;11.922;2023-01-13T05:37:31;1.42;;;0.70;;
13002;SDS011;66869;57.706;11.922;2023-01-13T05:39:57;1.10;;;0.50;;
13002;SDS011;66869;57.706;11.922;2023-01-13T05:42:43;0.77;;;0.50;;
13002;SDS011;66869;57.706;11.922;2023-01-13T05:45:29;0.98;;;0.40;;
13002;SDS011;66869;57.706;11.922;2023-01-13T05:47:56;1.83;;;0.60;;
13002;SDS011;66869;57.706;11.922;2023-01-13T05:50:23;1.13;;;0.50;;
13002;SDS011;66869;57.706;11.922;2023-01-13T05:52:49;1.73;;;0.70;;
13002;SDS011;66869;57.706;11.922;2023-01-13T05:55:15;1.38;;;0.40;;
13002;SDS011;66869;57.706;11.922;2023-01-13T05:57:42;1.15;;;0.47;;
13002;SDS011;66869;57.706;11.922;2023-01-13T06:00:09;1.88;;;0.40;;
13002;SDS011;66869;57.706;11.922;2023-01-13T06:02:35;1.35;;;0.55;;
13002;SDS011;66869;57.706;11.922;2023-01-13T06:05:02;1.05;;;0.40;;
13002;SDS011;66869;57.706;11.922;2023-01-13T06:07:28;2.63;;;0.60;;
13002;SDS011;66869;57.706;11.922;2023-01-13T06:09:55;0.82;;;0.50;;
13002;SDS011;66869;57.706;11.922;2023-01-13T06:12:20;1.60;;;0.70;;
13002;SDS011;66869;57.706;11.922;2023-01-13T06:14:47;1.48;;;0.60;;
13002;SDS011;66869;57.706;11.922;2023-01-13T06:17:14;0.73;;;0.50;;
13002;SDS011;66869;57.706;11.922;2023-01-13T06:19:41;1.23;;;0.60;;
13002;SDS011;66869;57.706;11.922;2023-01-13T06:22:23;1.25;;;0.60;;
13002;SDS011;66869;57.706;11.922;2023-01-13T06:24:52;1.17;;;0.50;;
13002;SDS011;66869;57.706;11.922;2023-01-13T06:27:20;3.15;;;0.68;;
13002;SDS011;66869;57.706;11.922;2023-01-13T06:29:45;1.02;;;0.60;;
13002;SDS011;66869;57.706;11.922;2023-01-13T06:32:17;1.52;;;0.60;;
13002;SDS011;66869;57.706;11.922;2023-01-13T06:34:46;1.40;;;0.60;;
13002;SDS011;66869;57.706;11.922;2023-01-13T06:37:14;0.70;;;0.50;;
13002;SDS011;66869;57.706;11.922;2023-01-13T06:39:44;1.30;;;0.32;;
13002;SDS011;66869;57.706;11.922;2023-01-13T06:42:11;0.88;;;0.50;;
13002;SDS011;66869;57.706;11.922;2023-01-13T06:44:59;0.73;;;0.50;;
13002;SDS011;66869;57.706;11.922;2023-01-13T06:47:26;1.30;;;0.60;;
13002;SDS011;66869;57.706;11.922;2023-01-13T06:49:52;1.55;;;0.52;;
13002;SDS011;66869;57.706;11.922;2023-01-13T06:52:19;1.17;;;0.47;;
13002;SDS011;66869;57.706;11.922;2023-01-13T06:54:44;1.33;;;0.47;;
13002;SDS011;66869;57.706;11.922;2023-01-13T06:57:10;1.98;;;0.70;;
13002;SDS011;66869;57.706;11.922;2023-01-13T06:59:37;6.95;;;1.02;;
13002;SDS011;66869;57.706;11.922;2023-01-13T07:02:03;48.92;;;9.55;;
13002;SDS011;66869;57.706;11.922;2023-01-13T07:04:30;48.40;;;9.00;;
13002;SDS011;66869;57.706;11.922;2023-01-13T07:06:55;21.88;;;4.60;;
13002;SDS011;66869;57.706;11.922;2023-01-13T07:09:24;15.13;;;2.78;;
13002;SDS011;66869;57.706;11.922;2023-01-13T07:11:51;13.57;;;3.10;;
13002;SDS011;66869;57.706;11.922;2023-01-13T07:14:17;12.40;;;3.10;;
13002;SDS011;66869;57.706;11.922;2023-01-13T07:17:03;11.30;;;2.90;;
13002;SDS011;66869;57.706;11.922;2023-01-13T07:19:28;11.48;;;2.42;;
13002;SDS011;66869;57.706;11.922;2023-01-13T07:21:55;8.35;;;2.20;;
13002;SDS011;66869;57.706;11.922;2023-01-13T07:24:20;10.50;;;2.22;;
13002;SDS011;66869;57.706;11.922;2023-01-13T07:26:47;8.93;;;2.00;;
13002;SDS011;66869;57.706;11.922;2023-01-13T07:29:15;6.90;;;1.65;;
13002;SDS011;66869;57.706;11.922;2023-01-13T07:31:42;5.78;;;1.83;;
13002;SDS011;66869;57.706;11.922;2023-01-13T07:34:08;6.53;;;1.80;;
13002;SDS011;66869;57.706;11.922;2023-01-13T07:36:36;8.50;;;1.70;;
13002;SDS011;66869;57.706;11.922;2023-01-13T07:39:02;5.95;;;1.70;;
13002;SDS011;66869;57.706;11.922;2023-01-13T07:41:29;5.55;;;1.50;;
13002;SDS011;66869;57.706;11.922;2023-01-13T07:44:14;4.63;;;1.38;;
13002;SDS011;66869;57.706;11.922;2023-01-13T07:46:41;8.70;;;1.40;;
13002;SDS011;66869;57.706;11.922;2023-01-13T07:49:07;5.50;;;1.38;;
13002;SDS011;66869;57.706;11.922;2023-01-13T07:51:37;3.55;;;1.25;;
13002;SDS011;66869;57.706;11.922;2023-01-13T07:54:07;5.20;;;1.00;;
13002;SDS011;66869;57.706;11.922;2023-01-13T07:56:32;5.97;;;1.33;;
13002;SDS011;66869;57.706;11.922;2023-01-13T07:58:59;5.32;;;1.35;;
13002;SDS011;66869;57.706;11.922;2023-01-13T08:01:26;3.55;;;0.95;;
13002;SDS011;66869;57.706;11.922;2023-01-13T08:03:54;3.78;;;1.05;;
13002;SDS011;66869;57.706;11.922;2023-01-13T08:06:24;2.78;;;1.05;;
13002;SDS011;66869;57.706;11.922;2023-01-13T08:08:49;3.08;;;1.00;;
13002;SDS011;66869;57.706;11.922;2023-01-13T08:11:16;2.53;;;0.85;;
13002;SDS011;66869;57.706;11.922;2023-01-13T08:13:44;4.82;;;1.05;;
13002;SDS011;66869;57.706;11.922;2023-01-13T08:16:11;2.58;;;0.95;;
13002;SDS011;66869;57.706;11.922;2023-01-13T08:18:39;3.40;;;0.70;;
13002;SDS011;66869;57.706;11.922;2023-01-13T08:21:07;2.65;;;0.90;;
13002;SDS011;66869;57.706;11.922;2023-01-13T08:23:36;3.28;;;0.82;;
13002;SDS011;66869;57.706;11.922;2023-01-13T08:26:05;2.75;;;1.00;;
13002;SDS011;66869;57.706;11.922;2023-01-13T08:28:32;3.05;;;1.10;;
13002;SDS011;66869;57.706;11.922;2023-01-13T08:30:58;2.40;;;0.93;;
13002;SDS011;66869;57.706;11.922;2023-01-13T08:33:24;1.95;;;0.90;;
13002;SDS011;66869;57.706;11.922;2023-01-13T08:35:51;2.13;;;0.90;;
13002;SDS011;66869;57.706;11.922;2023-01-13T08:38:18;3.15;;;0.93;;
13002;SDS011;66869;57.706;11.922;2023-01-13T08:40:44;1.70;;;0.82;;
13002;SDS011;66869;57.706;11.922;2023-01-13T08:43:11;1.77;;;0.70;;
13002;SDS011;66869;57.706;11.922;2023-01-13T08:45:40;3.20;;;1.08;;
13002;SDS011;66869;57.706;11.922;2023-01-13T08:48:05;1.35;;;0.68;;
13002;SDS011;66869;57.706;11.922;2023-01-13T08:50:31;1.73;;;0.90;;
13002;SDS011;66869;57.706;11.922;2023-01-13T08:52:58;2.90;;;0.80;;
13002;SDS011;66869;57.706;11.922;2023-01-13T08:55:24;1.77;;;0.82;;
13002;SDS011;66869;57.706;11.922;2023-01-13T08:57:51;1.92;;;0.60;;
13002;SDS011;66869;57.706;11.922;2023-01-13T09:00:18;2.97;;;1.00;;
13002;SDS011;66869;57.706;11.922;2023-01-13T09:02:44;3.15;;;1.10;;
13002;SDS011;66869;57.706;11.922;2023-01-13T09:05:11;1.70;;;0.65;;
13002;SDS011;66869;57.706;11.922;2023-01-13T09:07:37;2.08;;;0.70;;
13002;SDS011;66869;57.706;11.922;2023-01-13T09:10:05;2.50;;;0.85;;
13002;SDS011;66869;57.706;11.922;2023-01-13T09:12:33;2.00;;;0.90;;
13002;SDS011;66869;57.706;11.922;2023-01-13T09:15:18;1.55;;;0.88;;
13002;SDS011;66869;57.706;11.922;2023-01-13T09:17:47;3.00;;;1.10;;
13002;SDS011;66869;57.706;11.922;2023-01-13T09:20:14;2.65;;;0.90;;
13002;SDS011;66869;57.706;11.922;2023-01-13T09:22:41;1.67;;;0.60;;
13002;SDS011;66869;57.706;11.922;2023-01-13T09:25:08;1.88;;;0.70;;
13002;SDS011;66869;57.706;11.922;2023-01-13T09:27:37;2.15;;;0.88;;
13002;SDS011;66869;57.706;11.922;2023-01-13T09:30:04;1.63;;;0.70;;
13002;SDS011;66869;57.706;11.922;2023-01-13T09:32:33;3.03;;;0.75;;
13002;SDS011;66869;57.706;11.922;2023-01-13T09:35:00;2.83;;;1.05;;
13002;SDS011;66869;57.706;11.922;2023-01-13T09:37:28;1.40;;;0.82;;
13002;SDS011;66869;57.706;11.922;2023-01-13T09:39:55;1.45;;;0.60;;
13002;SDS011;66869;57.706;11.922;2023-01-13T09:47:43;2.28;;;0.80;;
13002;SDS011;66869;57.706;11.922;2023-01-13T09:53:09;2.08;;;0.60;;
13002;SDS011;66869;57.706;11.922;2023-01-13T09:55:37;1.63;;;0.63;;
13002;SDS011;66869;57.706;11.922;2023-01-13T09:58:14;1.52;;;0.63;;
13002;SDS011;66869;57.706;11.922;2023-01-13T10:01:08;2.92;;;0.95;;
13002;SDS011;66869;57.706;11.922;2023-01-13T10:03:30;2.42;;;1.08;;
13002;SDS011;66869;57.706;11.922;2023-01-13T10:08:47;2.35;;;0.77;;
13002;SDS011;66869;57.706;11.922;2023-01-13T10:11:17;1.98;;;0.80;;
13002;SDS011;66869;57.706;11.922;2023-01-13T10:19:42;1.80;;;0.68;;
13002;SDS011;66869;57.706;11.922;2023-01-13T10:22:40;2.53;;;0.80;;
13002;SDS011;66869;57.706;11.922;2023-01-13T10:27:49;1.67;;;0.65;;
13002;SDS011;66869;57.706;11.922;2023-01-13T10:30:32;2.53;;;0.90;;
13002;SDS011;66869;57.706;11.922;2023-01-13T10:33:09;3.47;;;0.80;;
13002;SDS011;66869;57.706;11.922;2023-01-13T10:35:58;2.70;;;0.82;;
13002;SDS011;66869;57.706;11.922;2023-01-13T10:41:26;1.85;;;0.60;;
13002;SDS011;66869;57.706;11.922;2023-01-13T10:44:00;2.17;;;0.80;;
13002;SDS011;66869;57.706;11.922;2023-01-13T10:46:27;2.20;;;0.80;;
13002;SDS011;66869;57.706;11.922;2023-01-13T10:48:54;2.35;;;0.65;;
13002;SDS011;66869;57.706;11.922;2023-01-13T10:51:24;1.70;;;0.70;;
13002;SDS011;66869;57.706;11.922;2023-01-13T10:56:20;2.28;;;0.80;;
13002;SDS011;66869;57.706;11.922;2023-01-13T10:58:47;1.00;;;0.50;;
13002;SDS011;66869;57.706;11.922;2023-01-13T11:01:18;1.80;;;0.82;;
13002;SDS011;66869;57.706;11.922;2023-01-13T11:03:46;1.88;;;0.90;;
13002;SDS011;66869;57.706;11.922;2023-01-13T11:06:20;1.77;;;0.80;;
13002;SDS011;66869;57.706;11.922;2023-01-13T11:08:48;2.05;;;0.60;;
13002;SDS011;66869;57.706;11.922;2023-01-13T11:14:27;1.80;;;0.60;;
13002;SDS011;66869;57.706;11.922;2023-01-13T11:19:57;1.50;;;0.55;;
13002;SDS011;66869;57.706;11.922;2023-01-13T11:22:28;1.08;;;0.60;;
13002;SDS011;66869;57.706;11.922;2023-01-13T11:24:57;2.88;;;0.70;;
13002;SDS011;66869;57.706;11.922;2023-01-13T11:27:41;1.73;;;0.70;;
13002;SDS011;66869;57.706;11.922;2023-01-13T11:33:03;3.17;;;0.77;;
13002;SDS011;66869;57.706;11.922;2023-01-13T11:35:33;2.63;;;0.95;;
13002;SDS011;66869;57.706;11.922;2023-01-13T11:38:03;2.33;;;0.85;;
13002;SDS011;66869;57.706;11.922;2023-01-13T11:40:35;1.90;;;0.55;;
13002;SDS011;66869;57.706;11.922;2023-01-13T11:45:45;1.42;;;0.70;;
13002;SDS011;66869;57.706;11.922;2023-01-13T11:48:15;2.08;;;0.60;;
13002;SDS011;66869;57.706;11.922;2023-01-13T11:51:28;1.52;;;0.60;;
13002;SDS011;66869;57.706;11.922;2023-01-13T12:06:40;2.72;;;1.00;;
13002;SDS011;66869;57.706;11.922;2023-01-13T12:23:11;1.67;;;0.70;;
13002;SDS011;66869;57.706;11.922;2023-01-13T12:25:49;1.85;;;0.70;;
13002;SDS011;66869;57.706;11.922;2023-01-13T12:28:22;1.80;;;0.60;;
13002;SDS011;66869;57.706;11.922;2023-01-13T12:30:59;1.75;;;0.63;;
13002;SDS011;66869;57.706;11.922;2023-01-13T12:39:01;2.13;;;0.70;;
13002;SDS011;66869;57.706;11.922;2023-01-13T12:44:30;0.80;;;0.50;;
13002;SDS011;66869;57.706;11.922;2023-01-13T12:46:57;1.95;;;0.75;;
13002;SDS011;66869;57.706;11.922;2023-01-13T12:52:00;1.75;;;0.70;;
13002;SDS011;66869;57.706;11.922;2023-01-13T12:57:30;1.50;;;0.77;;
13002;SDS011;66869;57.706;11.922;2023-01-13T13:00:10;1.30;;;0.70;;
13002;SDS011;66869;57.706;11.922;2023-01-13T13:02:38;1.20;;;0.70;;
13002;SDS011;66869;57.706;11.922;2023-01-13T13:07:52;1.58;;;0.73;;
13002;SDS011;66869;57.706;11.922;2023-01-13T13:10:30;1.38;;;0.52;;
13002;SDS011;66869;57.706;11.922;2023-01-13T13:12:58;1.02;;;0.50;;
13002;SDS011;66869;57.706;11.922;2023-01-13T13:15:46;1.80;;;0.57;;
13002;SDS011;66869;57.706;11.922;2023-01-13T13:18:23;2.47;;;0.63;;
13002;SDS011;66869;57.706;11.922;2023-01-13T13:21:03;2.58;;;0.88;;
13002;SDS011;66869;57.706;11.922;2023-01-13T13:39:41;0.80;;;0.50;;
13002;SDS011;66869;57.706;11.922;2023-01-13T13:42:27;1.38;;;0.60;;
13002;SDS011;66869;57.706;11.922;2023-01-13T13:45:19;0.82;;;0.43;;
13002;SDS011;66869;57.706;11.922;2023-01-13T13:50:51;1.00;;;0.50;;
13002;SDS011;66869;57.706;11.922;2023-01-13T13:53:30;0.85;;;0.50;;
13002;SDS011;66869;57.706;11.922;2023-01-13T13:55:59;0.45;;;0.45;;
13002;SDS011;66869;57.706;11.922;2023-01-13T13:58:30;1.65;;;0.57;;
13002;SDS011;66869;57.706;11.922;2023-01-13T14:01:01;1.00;;;0.50;;
13002;SDS011;66869;57.706;11.922;2023-01-13T14:03:31;0.98;;;0.60;;
13002;SDS011;66869;57.706;11.922;2023-01-13T14:06:03;1.08;;;0.50;;
13002;SDS011;66869;57.706;11.922;2023-01-13T14:08:33;1.30;;;0.40;;
13002;SDS011;66869;57.706;11.922;2023-01-13T14:11:00;1.23;;;0.57;;
13002;SDS011;66869;57.706;11.922;2023-01-13T14:13:30;2.53;;;0.60;;
13002;SDS011;66869;57.706;11.922;2023-01-13T14:16:02;1.10;;;0.57;;
13002;SDS011;66869;57.706;11.922;2023-01-13T14:18:32;1.17;;;0.70;;
13002;SDS011;66869;57.706;11.922;2023-01-13T14:21:04;1.25;;;0.50;;
13002;SDS011;66869;57.706;11.922;2023-01-13T14:23:47;1.45;;;0.60;;
13002;SDS011;66869;57.706;11.922;2023-01-13T14:26:14;1.20;;;0.52;;
13002;SDS011;66869;57.706;11.922;2023-01-13T14:28:42;1.42;;;0.47;;
13002;SDS011;66869;57.706;11.922;2023-01-13T14:31:09;1.77;;;0.52;;
13002;SDS011;66869;57.706;11.922;2023-01-13T14:33:40;1.77;;;0.57;;
13002;SDS011;66869;57.706;11.922;2023-01-13T14:36:17;0.57;;;0.50;;
13002;SDS011;66869;57.706;11.922;2023-01-13T14:38:45;0.95;;;0.50;;
13002;SDS011;66869;57.706;11.922;2023-01-13T14:41:21;0.80;;;0.40;;
13002;SDS011;66869;57.706;11.922;2023-01-13T14:43:49;0.77;;;0.50;;
13002;SDS011;66869;57.706;11.922;2023-01-13T14:46:17;0.50;;;0.40;;
13002;SDS011;66869;57.706;11.922;2023-01-13T14:48:43;0.75;;;0.47;;
13002;SDS011;66869;57.706;11.922;2023-01-13T14:51:19;1.98;;;0.50;;
13002;SDS011;66869;57.706;11.922;2023-01-13T14:53:47;1.05;;;0.40;;
13002;SDS011;66869;57.706;11.922;2023-01-13T14:59:01;0.75;;;0.47;;
13002;SDS011;66869;57.706;11.922;2023-01-13T15:01:34;1.08;;;0.50;;
13002;SDS011;66869;57.706;11.922;2023-01-13T15:07:04;0.50;;;0.40;;
13002;SDS011;66869;57.706;11.922;2023-01-13T15:09:42;1.45;;;0.60;;
13002;SDS011;66869;57.706;11.922;2023-01-13T15:12:44;0.32;;;0.28;;
13002;SDS011;66869;57.706;11.922;2023-01-13T15:15:28;1.02;;;0.50;;
13002;SDS011;66869;57.706;11.922;2023-01-13T15:17:53;0.93;;;0.50;;
13002;SDS011;66869;57.706;11.922;2023-01-13T15:20:22;1.83;;;0.55;;
13002;SDS011;66869;57.706;11.922;2023-01-13T15:22:50;0.98;;;0.43;;
13002;SDS011;66869;57.706;11.922;2023-01-13T15:25:17;1.17;;;0.40;;
13002;SDS011;66869;57.706;11.922;2023-01-13T15:27:43;0.85;;;0.30;;
13002;SDS011;66869;57.706;11.922;2023-01-13T15:30:14;0.63;;;0.35;;
13002;SDS011;66869;57.706;11.922;2023-01-13T15:32:46;1.30;;;0.50;;
13002;SDS011;66869;57.706;11.922;2023-01-13T15:35:14;0.85;;;0.30;;
13002;SDS011;66869;57.706;11.922;2023-01-13T15:37:39;1.27;;;0.35;;
13002;SDS011;66869;57.706;11.922;2023-01-13T15:40:10;0.95;;;0.40;;
13002;SDS011;66869;57.706;11.922;2023-01-13T15:42:37;0.85;;;0.30;;
13002;SDS011;66869;57.706;11.922;2023-01-13T15:45:22;0.88;;;0.30;;
13002;SDS011;66869;57.706;11.922;2023-01-13T15:48:07;1.65;;;0.60;;
13002;SDS011;66869;57.706;11.922;2023-01-13T15:50:34;0.68;;;0.30;;
13002;SDS011;66869;57.706;11.922;2023-01-13T15:53:00;0.40;;;0.40;;
13002;SDS011;66869;57.706;11.922;2023-01-13T15:55:27;0.60;;;0.38;;
13002;SDS011;66869;57.706;11.922;2023-01-13T15:57:54;0.75;;;0.35;;
13002;SDS011;66869;57.706;11.922;2023-01-13T16:00:21;0.55;;;0.30;;
13002;SDS011;66869;57.706;11.922;2023-01-13T16:02:48;0.40;;;0.35;;
13002;SDS011;66869;57.706;11.922;2023-01-13T16:05:15;0.32;;;0.30;;
13002;SDS011;66869;57.706;11.922;2023-01-13T16:07:42;0.35;;;0.25;;
13002;SDS011;66869;57.706;11.922;2023-01-13T16:10:15;0.50;;;0.25;;
13002;SDS011;66869;57.706;11.922;2023-01-13T16:12:42;0.68;;;0.30;;
13002;SDS011;66869;57.706;11.922;2023-01-13T16:15:12;0.88;;;0.22;;
13002;SDS011;66869;57.706;11.922;2023-01-13T16:17:39;0.73;;;0.30;;
13002;SDS011;66869;57.706;11.922;2023-01-13T16:20:15;0.13;;;0.10;;
13002;SDS011;66869;57.706;11.922;2023-01-13T16:22:42;0.68;;;0.38;;
13002;SDS011;66869;57.706;11.922;2023-01-13T16:25:18;0.95;;;0.50;;
13002;SDS011;66869;57.706;11.922;2023-01-13T16:27:45;0.47;;;0.35;;
13002;SDS011;66869;57.706;11.922;2023-01-13T16:30:28;1.02;;;0.40;;
13002;SDS011;66869;57.706;11.922;2023-01-13T16:32:55;0.77;;;0.50;;
13002;SDS011;66869;57.706;11.922;2023-01-13T16:35:21;0.63;;;0.32;;
13002;SDS011;66869;57.706;11.922;2023-01-13T16:37:49;0.60;;;0.40;;
13002;SDS011;66869;57.706;11.922;2023-01-13T16:40:25;0.75;;;0.40;;
13002;SDS011;66869;57.706;11.922;2023-01-13T16:42:56;0.50;;;0.32;;
13002;SDS011;66869;57.706;11.922;2023-01-13T16:45:23;0.52;;;0.30;;
13002;SDS011;66869;57.706;11.922;2023-01-13T16:47:50;0.57;;;0.32;;
13002;SDS011;66869;57.706;11.922;2023-01-13T16:50:33;0.63;;;0.40;;
13002;SDS011;66869;57.706;11.922;2023-01-13T16:53:01;1.25;;;0.40;;
13002;SDS011;66869;57.706;11.922;2023-01-13T16:55:31;0.52;;;0.38;;
13002;SDS011;66869;57.706;11.922;2023-01-13T16:57:56;1.05;;;0.30;;
13002;SDS011;66869;57.706;11.922;2023-01-13T17:00:23;1.13;;;0.40;;
13002;SDS011;66869;57.706;11.922;2023-01-13T17:02:50;1.70;;;0.50;;
13002;SDS011;66869;57.706;11.922;2023-01-13T17:05:16;0.82;;;0.55;;
13002;SDS011;66869;57.706;11.922;2023-01-13T17:07:42;1.02;;;0.40;;
13002;SDS011;66869;57.706;11.922;2023-01-13T17:10:16;0.90;;;0.40;;
13002;SDS011;66869;57.706;11.922;2023-01-13T17:12:42;1.38;;;0.50;;
13002;SDS011;66869;57.706;11.922;2023-01-13T17:15:09;0.68;;;0.30;;
13002;SDS011;66869;57.706;11.922;2023-01-13T17:17:36;1.30;;;0.57;;
13002;SDS011;66869;57.706;11.922;2023-01-13T17:20:02;1.30;;;0.40;;
13002;SDS011;66869;57.706;11.922;2023-01-13T17:22:28;0.60;;;0.50;;
13002;SDS011;66869;57.706;11.922;2023-01-13T17:24:56;1.45;;;0.60;;